sensor_id;sensor_type;location;lat;lon;timestamp;temperature;humidity
69054;DHT22;56125;52.242;4.756;2023-07-02T00:04:41;22.60;54.50
69054;DHT22;56125;52.242;4.756;2023-07-02T00:09:42;22.60;54.40
69054;DHT22;56125;52.242;4.756;2023-07-02T00:14:43;22.60;54.20
69054;DHT22;56125;52.242;4.756;2023-07-02T00:19:44;21.90;53.90
69054;DHT22;56125;52.242;4.756;2023-07-02T00:24:47;22.60;54.10
69054;DHT22;56125;52.242;4.756;2023-07-02T00:29:48;22.60;54.10
69054;DHT22;56125;52.242;4.756;2023-07-02T00:34:49;22.70;54.10
69054;DHT22;56125;52.242;4.756;2023-07-02T00:39:50;22.50;53.90
69054;DHT22;56125;52.242;4.756;2023-07-02T00:44:52;22.50;53.70
69054;DHT22;56125;52.242;4.756;2023-07-02T00:49:57;22.50;53.90
69054;DHT22;56125;52.242;4.756;2023-07-02T00:54:58;22.50;53.60
69054;DHT22;56125;52.242;4.756;2023-07-02T00:59:59;22.80;53.60
69054;DHT22;56125;52.242;4.756;2023-07-02T01:05:01;22.50;53.40
69054;DHT22;56125;52.242;4.756;2023-07-02T01:10:03;22.50;53.50
69054;DHT22;56125;52.242;4.756;2023-07-02T01:15:05;22.50;53.50
69054;DHT22;56125;52.242;4.756;2023-07-02T01:20:08;22.50;53.40
69054;DHT22;56125;52.242;4.756;2023-07-02T01:25:10;22.40;53.20
69054;DHT22;56125;52.242;4.756;2023-07-02T01:30:11;22.50;53.20
69054;DHT22;56125;52.242;4.756;2023-07-02T01:35:12;22.50;53.10
69054;DHT22;56125;52.242;4.756;2023-07-02T01:40:13;22.50;53.10
69054;DHT22;56125;52.242;4.756;2023-07-02T01:45:14;22.40;53.10
69054;DHT22;56125;52.242;4.756;2023-07-02T01:50:15;22.40;52.90
69054;DHT22;56125;52.242;4.756;2023-07-02T01:55:16;22.40;53.10
69054;DHT22;56125;52.242;4.756;2023-07-02T02:00:18;22.40;52.90
69054;DHT22;56125;52.242;4.756;2023-07-02T02:05:19;22.40;53.10
69054;DHT22;56125;52.242;4.756;2023-07-02T02:10:20;22.40;52.90
69054;DHT22;56125;52.242;4.756;2023-07-02T02:15:21;22.40;52.90
69054;DHT22;56125;52.242;4.756;2023-07-02T02:20:22;22.80;53.10
69054;DHT22;56125;52.242;4.756;2023-07-02T02:25:24;22.40;52.90
69054;DHT22;56125;52.242;4.756;2023-07-02T02:30:25;22.40;52.90
69054;DHT22;56125;52.242;4.756;2023-07-02T02:35:26;22.40;52.90
69054;DHT22;56125;52.242;4.756;2023-07-02T02:40:27;22.40;52.70
69054;DHT22;56125;52.242;4.756;2023-07-02T02:45:28;22.40;52.70
69054;DHT22;56125;52.242;4.756;2023-07-02T02:50:30;22.40;52.70
69054;DHT22;56125;52.242;4.756;2023-07-02T02:55:31;22.40;52.70
69054;DHT22;56125;52.242;4.756;2023-07-02T03:00:32;22.80;53.00
69054;DHT22;56125;52.242;4.756;2023-07-02T03:05:33;22.30;53.30
69054;DHT22;56125;52.242;4.756;2023-07-02T03:10:34;22.30;52.60
69054;DHT22;56125;52.242;4.756;2023-07-02T03:15:35;22.30;52.50
69054;DHT22;56125;52.242;4.756;2023-07-02T03:20:36;22.30;52.40
69054;DHT22;56125;52.242;4.756;2023-07-02T03:25:37;22.30;52.40
69054;DHT22;56125;52.242;4.756;2023-07-02T03:30:38;22.30;52.40
69054;DHT22;56125;52.242;4.756;2023-07-02T03:35:39;22.30;52.40
69054;DHT22;56125;52.242;4.756;2023-07-02T03:40:40;22.30;52.40
69054;DHT22;56125;52.242;4.756;2023-07-02T03:45:41;22.20;52.30
69054;DHT22;56125;52.242;4.756;2023-07-02T03:50:42;22.30;52.30
69054;DHT22;56125;52.242;4.756;2023-07-02T03:55:43;22.30;52.40
69054;DHT22;56125;52.242;4.756;2023-07-02T04:00:44;22.30;52.40
69054;DHT22;56125;52.242;4.756;2023-07-02T04:05:45;22.30;52.40
69054;DHT22;56125;52.242;4.756;2023-07-02T04:10:46;22.30;52.40
69054;DHT22;56125;52.242;4.756;2023-07-02T04:15:47;22.30;52.30
69054;DHT22;56125;52.242;4.756;2023-07-02T04:20:48;22.30;52.40
69054;DHT22;56125;52.242;4.756;2023-07-02T04:25:49;22.30;52.40
69054;DHT22;56125;52.242;4.756;2023-07-02T04:30:50;22.40;52.40
69054;DHT22;56125;52.242;4.756;2023-07-02T04:35:53;22.40;52.30
69054;DHT22;56125;52.242;4.756;2023-07-02T04:40:54;22.40;52.40
69054;DHT22;56125;52.242;4.756;2023-07-02T04:45:58;22.50;52.40
69054;DHT22;56125;52.242;4.756;2023-07-02T04:50:59;22.50;52.30
69054;DHT22;56125;52.242;4.756;2023-07-02T04:56:00;22.60;52.20
69054;DHT22;56125;52.242;4.756;2023-07-02T05:01:01;22.60;52.30
69054;DHT22;56125;52.242;4.756;2023-07-02T05:06:03;22.60;52.00
69054;DHT22;56125;52.242;4.756;2023-07-02T05:11:04;22.70;51.80
69054;DHT22;56125;52.242;4.756;2023-07-02T05:16:05;22.70;51.70
69054;DHT22;56125;52.242;4.756;2023-07-02T05:21:06;22.80;51.70
69054;DHT22;56125;52.242;4.756;2023-07-02T05:26:07;22.80;51.40
69054;DHT22;56125;52.242;4.756;2023-07-02T05:31:08;22.90;51.40
69054;DHT22;56125;52.242;4.756;2023-07-02T05:36:09;23.00;51.30
69054;DHT22;56125;52.242;4.756;2023-07-02T05:41:10;23.00;51.20
69054;DHT22;56125;52.242;4.756;2023-07-02T05:46:11;23.10;51.40
69054;DHT22;56125;52.242;4.756;2023-07-02T05:51:13;23.10;50.90
69054;DHT22;56125;52.242;4.756;2023-07-02T05:56:14;23.10;50.80
69054;DHT22;56125;52.242;4.756;2023-07-02T06:01:15;23.20;50.60
69054;DHT22;56125;52.242;4.756;2023-07-02T06:06:16;23.20;50.60
69054;DHT22;56125;52.242;4.756;2023-07-02T06:11:17;23.50;51.10
69054;DHT22;56125;52.242;4.756;2023-07-02T06:16:18;23.30;50.20
69054;DHT22;56125;52.242;4.756;2023-07-02T06:21:19;23.30;50.20
69054;DHT22;56125;52.242;4.756;2023-07-02T06:26:20;23.30;50.10
69054;DHT22;56125;52.242;4.756;2023-07-02T06:31:21;23.40;50.00
69054;DHT22;56125;52.242;4.756;2023-07-02T06:36:22;23.40;49.80
69054;DHT22;56125;52.242;4.756;2023-07-02T06:41:23;23.50;49.80
69054;DHT22;56125;52.242;4.756;2023-07-02T06:46:25;23.50;49.70
69054;DHT22;56125;52.242;4.756;2023-07-02T06:51:26;23.50;49.40
69054;DHT22;56125;52.242;4.756;2023-07-02T06:56:27;23.50;49.40
69054;DHT22;56125;52.242;4.756;2023-07-02T07:01:29;23.60;49.60
69054;DHT22;56125;52.242;4.756;2023-07-02T07:06:36;23.50;49.50
69054;DHT22;56125;52.242;4.756;2023-07-02T07:11:38;23.50;50.00
69054;DHT22;56125;52.242;4.756;2023-07-02T07:16:39;23.40;50.00
69054;DHT22;56125;52.242;4.756;2023-07-02T07:21:41;23.20;47.50
69054;DHT22;56125;52.242;4.756;2023-07-02T07:26:43;23.00;48.00
69054;DHT22;56125;52.242;4.756;2023-07-02T07:31:45;22.90;48.70
69054;DHT22;56125;52.242;4.756;2023-07-02T07:36:47;22.90;48.70
69054;DHT22;56125;52.242;4.756;2023-07-02T07:41:48;22.90;49.10
69054;DHT22;56125;52.242;4.756;2023-07-02T07:46:49;22.80;49.20
69054;DHT22;56125;52.242;4.756;2023-07-02T07:51:50;22.80;48.60
69054;DHT22;56125;52.242;4.756;2023-07-02T07:56:52;22.90;48.30
69054;DHT22;56125;52.242;4.756;2023-07-02T08:01:53;22.90;48.50
69054;DHT22;56125;52.242;4.756;2023-07-02T08:06:54;23.00;48.80
69054;DHT22;56125;52.242;4.756;2023-07-02T08:11:57;22.90;48.60
69054;DHT22;56125;52.242;4.756;2023-07-02T08:16:58;23.00;49.40
69054;DHT22;56125;52.242;4.756;2023-07-02T08:21:59;23.30;48.80
69054;DHT22;56125;52.242;4.756;2023-07-02T08:27:00;22.90;48.70
69054;DHT22;56125;52.242;4.756;2023-07-02T08:32:03;22.90;48.50
69054;DHT22;56125;52.242;4.756;2023-07-02T08:37:04;23.00;48.50
69054;DHT22;56125;52.242;4.756;2023-07-02T08:42:05;23.10;48.40
69054;DHT22;56125;52.242;4.756;2023-07-02T08:47:07;23.20;48.50
69054;DHT22;56125;52.242;4.756;2023-07-02T08:52:08;23.20;48.50
69054;DHT22;56125;52.242;4.756;2023-07-02T08:57:09;23.20;48.60
69054;DHT22;56125;52.242;4.756;2023-07-02T09:02:10;23.30;48.60
69054;DHT22;56125;52.242;4.756;2023-07-02T09:07:11;23.40;48.50
69054;DHT22;56125;52.242;4.756;2023-07-02T09:12:29;23.40;48.60
69054;DHT22;56125;52.242;4.756;2023-07-02T09:17:34;23.40;48.50
69054;DHT22;56125;52.242;4.756;2023-07-02T09:22:36;23.50;48.70
69054;DHT22;56125;52.242;4.756;2023-07-02T09:27:39;23.50;48.70
69054;DHT22;56125;52.242;4.756;2023-07-02T09:32:40;23.50;48.60
69054;DHT22;56125;52.242;4.756;2023-07-02T09:37:43;23.50;48.80
69054;DHT22;56125;52.242;4.756;2023-07-02T09:42:45;23.50;48.70
69054;DHT22;56125;52.242;4.756;2023-07-02T09:47:49;23.50;48.80
69054;DHT22;56125;52.242;4.756;2023-07-02T09:52:50;23.50;48.80
69054;DHT22;56125;52.242;4.756;2023-07-02T09:57:52;23.50;48.80
69054;DHT22;56125;52.242;4.756;2023-07-02T10:02:53;23.50;48.90
69054;DHT22;56125;52.242;4.756;2023-07-02T10:07:55;23.60;48.80
69054;DHT22;56125;52.242;4.756;2023-07-02T10:12:57;23.60;48.80
69054;DHT22;56125;52.242;4.756;2023-07-02T10:18:00;23.60;48.80
69054;DHT22;56125;52.242;4.756;2023-07-02T10:23:02;23.60;48.90
69054;DHT22;56125;52.242;4.756;2023-07-02T10:28:18;23.60;48.80
69054;DHT22;56125;52.242;4.756;2023-07-02T10:33:20;23.60;48.80
69054;DHT22;56125;52.242;4.756;2023-07-02T10:38:23;23.60;48.60
69054;DHT22;56125;52.242;4.756;2023-07-02T10:43:25;23.60;48.80
69054;DHT22;56125;52.242;4.756;2023-07-02T10:48:26;23.60;48.60
69054;DHT22;56125;52.242;4.756;2023-07-02T10:53:28;23.60;48.60
69054;DHT22;56125;52.242;4.756;2023-07-02T10:58:29;23.60;48.60
69054;DHT22;56125;52.242;4.756;2023-07-02T11:03:30;23.90;48.60
69054;DHT22;56125;52.242;4.756;2023-07-02T11:08:35;23.40;48.40
69054;DHT22;56125;52.242;4.756;2023-07-02T11:13:44;23.60;48.60
69054;DHT22;56125;52.242;4.756;2023-07-02T11:18:46;23.60;48.40
69054;DHT22;56125;52.242;4.756;2023-07-02T11:23:47;23.60;48.50
69054;DHT22;56125;52.242;4.756;2023-07-02T11:28:50;23.60;48.50
69054;DHT22;56125;52.242;4.756;2023-07-02T11:33:51;23.60;48.40
69054;DHT22;56125;52.242;4.756;2023-07-02T11:38:55;23.60;48.40
69054;DHT22;56125;52.242;4.756;2023-07-02T11:43:56;23.60;48.20
69054;DHT22;56125;52.242;4.756;2023-07-02T11:48:57;23.60;48.30
69054;DHT22;56125;52.242;4.756;2023-07-02T11:53:58;23.70;48.10
69054;DHT22;56125;52.242;4.756;2023-07-02T11:58:59;23.70;48.30
69054;DHT22;56125;52.242;4.756;2023-07-02T12:04:00;23.70;48.10
69054;DHT22;56125;52.242;4.756;2023-07-02T12:09:01;23.70;48.00
69054;DHT22;56125;52.242;4.756;2023-07-02T12:14:02;23.70;48.00
69054;DHT22;56125;52.242;4.756;2023-07-02T12:19:03;23.70;47.90
69054;DHT22;56125;52.242;4.756;2023-07-02T12:24:04;23.70;47.80
69054;DHT22;56125;52.242;4.756;2023-07-02T12:29:09;23.70;47.80
69054;DHT22;56125;52.242;4.756;2023-07-02T12:34:10;23.80;47.80
69054;DHT22;56125;52.242;4.756;2023-07-02T12:39:11;23.70;47.50
69054;DHT22;56125;52.242;4.756;2023-07-02T12:44:12;23.80;47.50
69054;DHT22;56125;52.242;4.756;2023-07-02T12:49:13;23.70;47.40
69054;DHT22;56125;52.242;4.756;2023-07-02T12:54:14;23.80;47.20
69054;DHT22;56125;52.242;4.756;2023-07-02T12:59:16;23.80;47.50
69054;DHT22;56125;52.242;4.756;2023-07-02T13:04:17;23.80;47.30
69054;DHT22;56125;52.242;4.756;2023-07-02T13:09:18;23.40;46.90
69054;DHT22;56125;52.242;4.756;2023-07-02T13:14:19;23.70;48.30
69054;DHT22;56125;52.242;4.756;2023-07-02T13:19:20;23.80;47.20
69054;DHT22;56125;52.242;4.756;2023-07-02T13:24:21;23.80;47.30
69054;DHT22;56125;52.242;4.756;2023-07-02T13:29:22;23.80;47.30
69054;DHT22;56125;52.242;4.756;2023-07-02T13:34:23;23.80;47.30
69054;DHT22;56125;52.242;4.756;2023-07-02T13:39:24;23.80;47.20
69054;DHT22;56125;52.242;4.756;2023-07-02T13:44:25;23.70;47.50
69054;DHT22;56125;52.242;4.756;2023-07-02T13:49:26;23.80;47.20
69054;DHT22;56125;52.242;4.756;2023-07-02T13:54:27;23.70;47.10
69054;DHT22;56125;52.242;4.756;2023-07-02T13:59:28;23.80;47.20
69054;DHT22;56125;52.242;4.756;2023-07-02T14:04:29;23.80;47.00
69054;DHT22;56125;52.242;4.756;2023-07-02T14:09:31;23.50;46.80
69054;DHT22;56125;52.242;4.756;2023-07-02T14:14:32;23.80;46.80
69054;DHT22;56125;52.242;4.756;2023-07-02T14:19:33;23.80;46.90
69054;DHT22;56125;52.242;4.756;2023-07-02T14:24:34;23.70;47.30
69054;DHT22;56125;52.242;4.756;2023-07-02T14:29:36;23.70;47.00
69054;DHT22;56125;52.242;4.756;2023-07-02T14:34:37;23.20;46.90
69054;DHT22;56125;52.242;4.756;2023-07-02T14:39:38;23.70;46.80
69054;DHT22;56125;52.242;4.756;2023-07-02T14:44:39;23.70;47.30
69054;DHT22;56125;52.242;4.756;2023-07-02T14:49:40;23.90;47.00
69054;DHT22;56125;52.242;4.756;2023-07-02T14:54:41;23.60;47.30
69054;DHT22;56125;52.242;4.756;2023-07-02T14:59:42;23.60;46.10
69054;DHT22;56125;52.242;4.756;2023-07-02T15:04:43;23.40;44.70
69054;DHT22;56125;52.242;4.756;2023-07-02T15:09:44;23.30;44.80
69054;DHT22;56125;52.242;4.756;2023-07-02T15:14:45;23.30;45.80
69054;DHT22;56125;52.242;4.756;2023-07-02T15:19:46;23.20;44.50
69054;DHT22;56125;52.242;4.756;2023-07-02T15:24:47;23.10;44.20
69054;DHT22;56125;52.242;4.756;2023-07-02T15:29:48;23.20;45.20
69054;DHT22;56125;52.242;4.756;2023-07-02T15:34:49;23.10;44.60
69054;DHT22;56125;52.242;4.756;2023-07-02T15:39:50;23.00;44.80
69054;DHT22;56125;52.242;4.756;2023-07-02T15:44:51;23.00;43.50
69054;DHT22;56125;52.242;4.756;2023-07-02T15:49:52;22.90;44.00
69054;DHT22;56125;52.242;4.756;2023-07-02T15:54:53;22.80;43.90
69054;DHT22;56125;52.242;4.756;2023-07-02T15:59:54;22.80;43.80
69054;DHT22;56125;52.242;4.756;2023-07-02T16:04:55;22.70;44.60
69054;DHT22;56125;52.242;4.756;2023-07-02T16:09:58;22.60;42.50
69054;DHT22;56125;52.242;4.756;2023-07-02T16:15:00;22.70;44.70
69054;DHT22;56125;52.242;4.756;2023-07-02T16:20:01;22.70;42.90
69054;DHT22;56125;52.242;4.756;2023-07-02T16:25:02;22.50;43.40
69054;DHT22;56125;52.242;4.756;2023-07-02T16:30:03;22.60;44.50
69054;DHT22;56125;52.242;4.756;2023-07-02T16:35:05;22.60;44.80
69054;DHT22;56125;52.242;4.756;2023-07-02T16:40:07;22.60;44.20
69054;DHT22;56125;52.242;4.756;2023-07-02T16:45:08;22.50;44.90
69054;DHT22;56125;52.242;4.756;2023-07-02T16:50:09;22.60;45.70
69054;DHT22;56125;52.242;4.756;2023-07-02T16:55:12;22.60;48.60
69054;DHT22;56125;52.242;4.756;2023-07-02T17:00:13;22.60;46.40
69054;DHT22;56125;52.242;4.756;2023-07-02T17:05:14;22.60;45.40
69054;DHT22;56125;52.242;4.756;2023-07-02T17:10:15;22.50;45.30
69054;DHT22;56125;52.242;4.756;2023-07-02T17:15:16;22.60;45.90
69054;DHT22;56125;52.242;4.756;2023-07-02T17:20:17;22.60;46.10
69054;DHT22;56125;52.242;4.756;2023-07-02T17:25:18;22.60;46.90
69054;DHT22;56125;52.242;4.756;2023-07-02T17:30:19;22.50;46.10
69054;DHT22;56125;52.242;4.756;2023-07-02T17:35:20;22.40;46.40
69054;DHT22;56125;52.242;4.756;2023-07-02T17:40:22;22.50;47.20
69054;DHT22;56125;52.242;4.756;2023-07-02T17:45:23;22.40;47.90
69054;DHT22;56125;52.242;4.756;2023-07-02T17:50:24;22.40;47.70
69054;DHT22;56125;52.242;4.756;2023-07-02T17:55:25;22.30;48.60
69054;DHT22;56125;52.242;4.756;2023-07-02T18:00:26;22.30;48.60
69054;DHT22;56125;52.242;4.756;2023-07-02T18:05:27;22.30;48.20
69054;DHT22;56125;52.242;4.756;2023-07-02T18:10:28;22.20;48.40
69054;DHT22;56125;52.242;4.756;2023-07-02T18:15:32;22.20;48.60
69054;DHT22;56125;52.242;4.756;2023-07-02T18:20:34;22.20;50.30
69054;DHT22;56125;52.242;4.756;2023-07-02T18:25:38;22.10;49.60
69054;DHT22;56125;52.242;4.756;2023-07-02T18:30:51;22.10;49.50
69054;DHT22;56125;52.242;4.756;2023-07-02T18:35:55;22.10;49.70
69054;DHT22;56125;52.242;4.756;2023-07-02T18:41:16;22.10;49.30
69054;DHT22;56125;52.242;4.756;2023-07-02T18:46:18;22.50;49.60
69054;DHT22;56125;52.242;4.756;2023-07-02T18:51:20;22.10;49.90
69054;DHT22;56125;52.242;4.756;2023-07-02T18:56:22;22.10;50.30
69054;DHT22;56125;52.242;4.756;2023-07-02T19:01:23;22.00;50.00
69054;DHT22;56125;52.242;4.756;2023-07-02T19:06:24;22.00;50.30
69054;DHT22;56125;52.242;4.756;2023-07-02T19:11:25;22.00;50.20
69054;DHT22;56125;52.242;4.756;2023-07-02T19:16:26;22.00;50.50
69054;DHT22;56125;52.242;4.756;2023-07-02T19:21:28;21.90;50.50
69054;DHT22;56125;52.242;4.756;2023-07-02T19:26:29;21.90;50.90
69054;DHT22;56125;52.242;4.756;2023-07-02T19:31:30;21.90;51.00
69054;DHT22;56125;52.242;4.756;2023-07-02T19:36:31;21.90;51.30
69054;DHT22;56125;52.242;4.756;2023-07-02T19:41:32;21.80;51.30
69054;DHT22;56125;52.242;4.756;2023-07-02T19:46:33;21.80;51.70
69054;DHT22;56125;52.242;4.756;2023-07-02T19:51:34;21.80;52.10
69054;DHT22;56125;52.242;4.756;2023-07-02T19:56:35;21.80;52.10
69054;DHT22;56125;52.242;4.756;2023-07-02T20:01:36;21.70;52.20
69054;DHT22;56125;52.242;4.756;2023-07-02T20:06:37;21.70;52.40
69054;DHT22;56125;52.242;4.756;2023-07-02T20:11:38;21.80;52.70
69054;DHT22;56125;52.242;4.756;2023-07-02T20:16:39;21.80;52.80
69054;DHT22;56125;52.242;4.756;2023-07-02T20:21:40;21.80;53.00
69054;DHT22;56125;52.242;4.756;2023-07-02T20:26:42;21.80;53.10
69054;DHT22;56125;52.242;4.756;2023-07-02T20:31:43;21.80;53.30
69054;DHT22;56125;52.242;4.756;2023-07-02T20:36:44;21.80;54.60
69054;DHT22;56125;52.242;4.756;2023-07-02T20:41:46;21.80;53.80
69054;DHT22;56125;52.242;4.756;2023-07-02T20:46:47;21.80;53.70
69054;DHT22;56125;52.242;4.756;2023-07-02T20:51:49;21.90;53.70
69054;DHT22;56125;52.242;4.756;2023-07-02T20:56:50;21.80;53.70
69054;DHT22;56125;52.242;4.756;2023-07-02T21:01:51;21.80;53.80
69054;DHT22;56125;52.242;4.756;2023-07-02T21:06:52;21.80;54.10
69054;DHT22;56125;52.242;4.756;2023-07-02T21:11:53;21.80;54.10
69054;DHT22;56125;52.242;4.756;2023-07-02T21:16:55;21.80;54.00
69054;DHT22;56125;52.242;4.756;2023-07-02T21:21:56;21.80;54.10
69054;DHT22;56125;52.242;4.756;2023-07-02T21:26:57;21.90;54.10
69054;DHT22;56125;52.242;4.756;2023-07-02T21:31:58;21.90;54.10
69054;DHT22;56125;52.242;4.756;2023-07-02T21:36:59;21.90;54.20
69054;DHT22;56125;52.242;4.756;2023-07-02T21:42:01;21.90;54.40
69054;DHT22;56125;52.242;4.756;2023-07-02T21:47:02;21.90;55.40
69054;DHT22;56125;52.242;4.756;2023-07-02T21:52:03;21.90;54.10
69054;DHT22;56125;52.242;4.756;2023-07-02T21:57:08;21.80;54.30
69054;DHT22;56125;52.242;4.756;2023-07-02T22:02:09;21.90;54.40
69054;DHT22;56125;52.242;4.756;2023-07-02T22:07:10;21.80;54.50
69054;DHT22;56125;52.242;4.756;2023-07-02T22:12:14;21.80;54.40
69054;DHT22;56125;52.242;4.756;2023-07-02T22:17:15;21.80;54.40
69054;DHT22;56125;52.242;4.756;2023-07-02T22:22:20;21.80;54.30
69054;DHT22;56125;52.242;4.756;2023-07-02T22:27:21;21.80;54.40
69054;DHT22;56125;52.242;4.756;2023-07-02T22:32:27;21.90;54.50
69054;DHT22;56125;52.242;4.756;2023-07-02T22:37:29;21.80;54.40
69054;DHT22;56125;52.242;4.756;2023-07-02T22:42:34;21.80;54.50
69054;DHT22;56125;52.242;4.756;2023-07-02T22:47:36;21.80;54.70
69054;DHT22;56125;52.242;4.756;2023-07-02T22:52:37;21.80;54.70
69054;DHT22;56125;52.242;4.756;2023-07-02T22:57:39;21.90;54.60
69054;DHT22;56125;52.242;4.756;2023-07-02T23:02:45;21.80;54.60
69054;DHT22;56125;52.242;4.756;2023-07-02T23:07:46;21.80;54.70
69054;DHT22;56125;52.242;4.756;2023-07-02T23:12:49;21.80;54.80
69054;DHT22;56125;52.242;4.756;2023-07-02T23:17:52;21.90;54.90
69054;DHT22;56125;52.242;4.756;2023-07-02T23:22:53;21.90;55.00
69054;DHT22;56125;52.242;4.756;2023-07-02T23:27:55;21.90;54.80
69054;DHT22;56125;52.242;4.756;2023-07-02T23:33:05;21.90;54.90
69054;DHT22;56125;52.242;4.756;2023-07-02T23:38:07;21.80;55.00
69054;DHT22;56125;52.242;4.756;2023-07-02T23:43:08;21.80;55.00
69054;DHT22;56125;52.242;4.756;2023-07-02T23:48:09;21.80;54.90
69054;DHT22;56125;52.242;4.756;2023-07-02T23:53:10;21.80;55.10
69054;DHT22;56125;52.242;4.756;2023-07-02T23:58:11;21.80;55.00
